Time;durP1;ratioP1;P1;durP2;ratioP2;P2;SDS_P1;SDS_P2;PMS_P1;PMS_P2;Temp;Humidity;BMP_temperature;BMP_pressure;BME280_temperature;BME280_humidity;BME280_pressure;Samples;Min_cycle;Max_cycle;Signal;HPM_P1;HPM_P2
2023/07/19 00:00:30;;;;;;;4.27;2.50;;;16.40;99.90;;;;;;5048478;28;20712;-61
2023/07/19 00:03:00;;;;;;;7.20;2.27;;;16.50;99.90;;;;;;5053540;28;20189;-60
2023/07/19 00:05:31;;;;;;;5.70;2.37;;;16.50;99.90;;;;;;5049283;28;20232;-61
2023/07/19 00:08:01;;;;;;;8.40;2.30;;;16.50;99.90;;;;;;5050412;28;20202;-61
2023/07/19 00:10:32;;;;;;;4.23;2.43;;;16.50;99.90;;;;;;5046046;28;20210;-60
2023/07/19 00:13:00;;;;;;;3.07;2.30;;;16.50;99.90;;;;;;5050548;28;20193;-60
2023/07/19 00:15:30;;;;;;;3.57;2.63;;;16.50;99.90;;;;;;5057253;28;20532;-61
2023/07/19 00:17:58;;;;;;;3.67;2.40;;;16.60;99.90;;;;;;5054805;28;20210;-60
2023/07/19 00:20:26;;;;;;;3.47;2.50;;;16.70;99.90;;;;;;5050824;28;20895;-61
2023/07/19 00:22:54;;;;;;;3.03;2.30;;;16.70;99.90;;;;;;5048979;28;20289;-61
2023/07/19 00:25:23;;;;;;;4.77;2.20;;;16.70;99.90;;;;;;5055654;28;20306;-61
2023/07/19 00:27:53;;;;;;;5.33;2.57;;;16.60;99.90;;;;;;5051579;28;20522;-61
2023/07/19 00:30:21;;;;;;;3.70;2.40;;;16.60;99.90;;;;;;5056748;28;20210;-61
2023/07/19 00:32:49;;;;;;;4.30;2.60;;;16.50;99.90;;;;;;5044398;28;20207;-60
2023/07/19 00:35:22;;;;;;;3.97;2.53;;;16.50;99.90;;;;;;5044361;28;20245;-60
2023/07/19 00:37:51;;;;;;;4.23;2.73;;;16.50;99.90;;;;;;5055193;28;20555;-60
2023/07/19 00:40:21;;;;;;;4.30;2.70;;;16.50;99.90;;;;;;5052111;28;20558;-60
2023/07/19 00:42:49;;;;;;;6.30;2.33;;;16.40;99.90;;;;;;5051934;28;20184;-61
2023/07/19 00:45:19;;;;;;;3.83;2.43;;;16.40;99.90;;;;;;5053200;28;20200;-61
2023/07/19 00:47:47;;;;;;;4.77;2.47;;;16.40;99.90;;;;;;5044411;28;20228;-60
2023/07/19 00:50:16;;;;;;;3.53;2.73;;;16.30;99.90;;;;;;5049483;28;20651;-60
2023/07/19 00:52:45;;;;;;;7.03;2.50;;;16.30;99.90;;;;;;5054722;28;20199;-61
2023/07/19 00:55:13;;;;;;;3.90;2.40;;;16.30;99.90;;;;;;5047832;28;20200;-60
2023/07/19 00:57:42;;;;;;;5.43;2.50;;;16.40;99.90;;;;;;5052363;28;20199;-61
2023/07/19 01:00:11;;;;;;;4.87;2.53;;;16.40;99.90;;;;;;5048646;28;20196;-61
2023/07/19 01:02:41;;;;;;;2.77;2.50;;;16.40;99.90;;;;;;5048763;28;20195;-61
2023/07/19 01:05:10;;;;;;;4.33;2.60;;;16.50;99.90;;;;;;5047442;28;20201;-60
2023/07/19 01:07:39;;;;;;;4.37;2.23;;;16.50;99.90;;;;;;5049557;28;20206;-60
2023/07/19 01:10:08;;;;;;;4.63;2.70;;;16.60;99.90;;;;;;5053725;28;20202;-61
2023/07/19 01:12:36;;;;;;;4.67;2.57;;;16.60;99.90;;;;;;5053045;28;20203;-60
2023/07/19 01:15:08;;;;;;;4.47;2.90;;;16.60;99.90;;;;;;5063615;28;20537;-60
2023/07/19 01:17:37;;;;;;;4.13;2.30;;;16.60;99.90;;;;;;5054940;28;20749;-60
2023/07/19 01:20:08;;;;;;;8.03;3.17;;;16.70;99.90;;;;;;5046473;28;20188;-61
2023/07/19 01:22:38;;;;;;;3.57;2.40;;;16.70;99.90;;;;;;5046440;28;20197;-60
2023/07/19 01:25:07;;;;;;;4.10;2.53;;;16.70;99.90;;;;;;5046716;28;20215;-61
2023/07/19 01:27:35;;;;;;;4.10;2.80;;;16.80;99.90;;;;;;5048974;28;20201;-60
2023/07/19 01:30:04;;;;;;;2.73;2.53;;;16.80;99.90;;;;;;5039691;28;20196;-59
2023/07/19 01:32:32;;;;;;;4.77;2.70;;;16.80;99.90;;;;;;5050722;28;20198;-61
2023/07/19 01:35:01;;;;;;;8.00;2.43;;;16.80;99.90;;;;;;5052856;28;20199;-61
2023/07/19 01:37:32;;;;;;;2.90;2.60;;;16.80;99.90;;;;;;5044744;28;20189;-60
2023/07/19 01:40:03;;;;;;;4.00;2.50;;;16.80;99.90;;;;;;5046122;28;20191;-60
2023/07/19 01:42:31;;;;;;;4.03;2.63;;;16.80;99.90;;;;;;5040516;28;20202;-60
2023/07/19 01:45:01;;;;;;;4.03;2.53;;;16.70;99.90;;;;;;5048032;28;20689;-61
2023/07/19 01:47:29;;;;;;;6.03;2.80;;;16.70;99.90;;;;;;5042552;28;20234;-61
2023/07/19 01:49:58;;;;;;;4.10;2.70;;;16.70;99.90;;;;;;5044460;28;20187;-61
2023/07/19 01:52:26;;;;;;;3.17;2.60;;;16.70;99.90;;;;;;5050507;28;20193;-61
2023/07/19 01:54:54;;;;;;;4.37;2.80;;;16.70;99.90;;;;;;5050720;28;20550;-61
2023/07/19 01:57:24;;;;;;;3.20;2.50;;;16.70;99.90;;;;;;5052370;28;20185;-61
2023/07/19 01:59:53;;;;;;;3.80;2.77;;;16.70;99.90;;;;;;5048303;28;20195;-61
2023/07/19 02:02:21;;;;;;;2.93;2.70;;;16.70;99.90;;;;;;5048603;28;20551;-61
2023/07/19 02:04:51;;;;;;;7.60;2.70;;;16.70;99.90;;;;;;5052596;28;20204;-61
2023/07/19 02:07:20;;;;;;;3.93;3.13;;;16.70;99.90;;;;;;5043197;28;20682;-61
2023/07/19 02:09:48;;;;;;;6.17;2.80;;;16.80;99.90;;;;;;5048531;28;20181;-60
2023/07/19 02:12:16;;;;;;;3.80;2.63;;;16.80;99.90;;;;;;5049518;28;20211;-60
2023/07/19 02:14:46;;;;;;;6.93;2.93;;;16.80;99.90;;;;;;5054425;28;20188;-60
2023/07/19 02:17:14;;;;;;;4.30;2.90;;;16.80;99.90;;;;;;5051480;28;20207;-60
2023/07/19 02:19:43;;;;;;;7.63;3.10;;;16.80;99.90;;;;;;5048914;28;20260;-60
2023/07/19 02:22:11;;;;;;;4.33;2.73;;;16.80;99.90;;;;;;5042655;28;20201;-60
2023/07/19 02:24:39;;;;;;;3.53;2.70;;;16.80;99.90;;;;;;5046593;28;20196;-60
2023/07/19 02:27:08;;;;;;;4.03;3.03;;;16.80;99.90;;;;;;5049256;28;20278;-62
2023/07/19 02:29:36;;;;;;;3.07;2.60;;;16.80;99.90;;;;;;5046278;28;21062;-61
2023/07/19 02:32:07;;;;;;;6.00;2.80;;;16.80;99.90;;;;;;5048311;28;20229;-60
2023/07/19 02:34:35;;;;;;;8.33;3.33;;;16.70;99.90;;;;;;5044258;28;20534;-60
2023/07/19 02:37:04;;;;;;;5.50;3.00;;;16.80;99.90;;;;;;5044827;28;20191;-61
2023/07/19 02:39:32;;;;;;;4.23;2.97;;;16.80;99.90;;;;;;5047003;28;20222;-60
2023/07/19 02:42:00;;;;;;;9.70;3.10;;;16.80;99.90;;;;;;5050037;28;20203;-60
2023/07/19 02:44:29;;;;;;;5.27;2.70;;;16.80;99.90;;;;;;5048332;28;20197;-60
2023/07/19 02:46:57;;;;;;;3.63;2.90;;;16.80;99.90;;;;;;5050654;28;20208;-61
2023/07/19 02:49:27;;;;;;;5.43;3.03;;;16.90;99.90;;;;;;5048068;28;20227;-60
2023/07/19 02:51:55;;;;;;;3.10;2.80;;;16.90;99.90;;;;;;5050603;28;20196;-61
2023/07/19 02:54:24;;;;;;;7.93;3.10;;;17.00;99.90;;;;;;5051542;28;20211;-61
2023/07/19 02:56:52;;;;;;;7.37;2.70;;;17.00;99.90;;;;;;5057930;28;20181;-61
2023/07/19 02:59:20;;;;;;;5.67;3.00;;;17.00;99.90;;;;;;5052979;28;20207;-60
2023/07/19 03:01:48;;;;;;;5.00;3.03;;;17.00;99.90;;;;;;5050954;28;20568;-60
2023/07/19 03:04:16;;;;;;;8.27;2.90;;;17.00;99.90;;;;;;5058537;28;20299;-60
2023/07/19 03:06:48;;;;;;;4.60;3.00;;;17.00;99.90;;;;;;5051585;28;20551;-60
2023/07/19 03:09:16;;;;;;;3.40;2.57;;;17.00;99.90;;;;;;5056203;28;20218;-60
2023/07/19 03:11:45;;;;;;;3.27;2.70;;;17.00;99.90;;;;;;5050471;28;20188;-60
2023/07/19 03:14:13;;;;;;;7.17;3.50;;;17.10;99.90;;;;;;5053444;28;20189;-60
2023/07/19 03:16:42;;;;;;;4.60;3.10;;;17.20;99.90;;;;;;5054847;28;20200;-60
2023/07/19 03:19:10;;;;;;;6.53;2.80;;;17.30;99.90;;;;;;5047264;28;20242;-60
2023/07/19 03:21:41;;;;;;;5.10;2.60;;;17.30;99.90;;;;;;5045996;28;20578;-60
2023/07/19 03:24:12;;;;;;;6.33;3.30;;;17.30;99.90;;;;;;5057323;28;20287;-60
2023/07/19 03:26:40;;;;;;;5.87;3.60;;;17.40;99.90;;;;;;5051444;28;20188;-61
2023/07/19 03:29:08;;;;;;;5.90;3.13;;;17.40;99.90;;;;;;5047531;28;20199;-60
2023/07/19 03:31:36;;;;;;;4.30;3.17;;;17.40;99.90;;;;;;5046418;28;20197;-60
2023/07/19 03:34:05;;;;;;;5.77;3.43;;;17.40;99.90;;;;;;5048082;28;20203;-60
2023/07/19 03:36:33;;;;;;;3.53;3.03;;;17.40;99.90;;;;;;5051966;28;20192;-60
2023/07/19 03:39:03;;;;;;;6.17;3.60;;;17.40;99.90;;;;;;5050018;28;20193;-60
2023/07/19 03:41:33;;;;;;;8.80;3.80;;;17.40;99.90;;;;;;5047875;28;20603;-60
2023/07/19 03:44:01;;;;;;;10.27;3.80;;;17.40;99.90;;;;;;5059100;28;20217;-61
2023/07/19 03:46:29;;;;;;;3.93;3.50;;;17.40;99.90;;;;;;5048440;28;20203;-60
2023/07/19 03:48:57;;;;;;;4.53;3.53;;;17.40;99.90;;;;;;5051292;28;20227;-60
2023/07/19 03:51:26;;;;;;;5.07;3.53;;;17.40;99.90;;;;;;5048452;28;20208;-60
2023/07/19 03:53:54;;;;;;;6.10;3.73;;;17.40;99.90;;;;;;5053949;28;20198;-60
2023/07/19 03:56:23;;;;;;;3.87;3.43;;;17.40;99.90;;;;;;5053719;28;20283;-60
2023/07/19 03:58:52;;;;;;;6.73;3.43;;;17.40;99.90;;;;;;5053638;28;20215;-60
2023/07/19 04:01:21;;;;;;;3.90;3.30;;;17.40;99.90;;;;;;5052528;28;20605;-60
2023/07/19 04:03:49;;;;;;;5.73;3.60;;;17.50;99.90;;;;;;5050284;28;20184;-60
2023/07/19 04:06:18;;;;;;;6.53;3.63;;;17.50;99.90;;;;;;5052042;28;20181;-60
2023/07/19 04:08:46;;;;;;;4.63;3.30;;;17.40;99.90;;;;;;5042035;28;20231;-60
2023/07/19 04:11:15;;;;;;;6.53;3.70;;;17.40;99.90;;;;;;5053829;28;20189;-60
2023/07/19 04:13:43;;;;;;;7.23;3.63;;;17.50;99.90;;;;;;5045781;28;20659;-60
2023/07/19 04:16:12;;;;;;;4.37;3.97;;;17.50;99.90;;;;;;5056331;28;20192;-60
2023/07/19 04:18:41;;;;;;;4.73;3.70;;;17.40;99.90;;;;;;5050121;28;20231;-60
2023/07/19 04:21:09;;;;;;;7.13;3.17;;;17.50;99.90;;;;;;5049979;28;20195;-60
2023/07/19 04:23:38;;;;;;;6.30;3.43;;;17.40;99.90;;;;;;5046496;28;20649;-60
2023/07/19 04:26:06;;;;;;;6.23;3.27;;;17.50;99.90;;;;;;5043839;28;20208;-60
2023/07/19 04:28:34;;;;;;;7.17;3.40;;;17.50;99.90;;;;;;5048509;28;20212;-60
2023/07/19 04:31:03;;;;;;;4.47;3.13;;;17.50;99.90;;;;;;5044064;28;20239;-60
2023/07/19 04:33:32;;;;;;;7.70;3.40;;;17.50;99.90;;;;;;5048451;28;20200;-60
2023/07/19 04:36:01;;;;;;;4.90;2.83;;;17.50;99.90;;;;;;5044385;28;20196;-60
2023/07/19 04:38:29;;;;;;;9.13;2.73;;;17.50;99.90;;;;;;5046178;28;20188;-60
2023/07/19 04:41:03;;;;;;;7.23;3.47;;;17.60;99.90;;;;;;5050690;28;20196;-60
2023/07/19 04:43:31;;;;;;;8.90;3.37;;;17.60;99.90;;;;;;5049208;28;20223;-60
2023/07/19 04:46:08;;;;;;;6.13;3.50;;;17.60;99.90;;;;;;5047272;28;20279;-60
2023/07/19 04:48:39;;;;;;;4.00;2.70;;;17.60;99.90;;;;;;5048672;28;20247;-60
2023/07/19 04:51:07;;;;;;;4.67;3.30;;;17.60;99.90;;;;;;5047487;28;20197;-60
2023/07/19 04:53:36;;;;;;;9.60;3.17;;;17.70;99.90;;;;;;5051849;28;20646;-61
2023/07/19 04:56:04;;;;;;;4.70;3.23;;;17.70;99.90;;;;;;5057698;28;20207;-60
2023/07/19 04:58:33;;;;;;;4.03;3.10;;;17.70;99.90;;;;;;5052343;28;20205;-60
2023/07/19 05:01:05;;;;;;;5.23;2.80;;;17.70;99.90;;;;;;5044971;28;20680;-61
2023/07/19 05:03:34;;;;;;;4.20;2.87;;;17.70;99.90;;;;;;5045564;28;20234;-60
2023/07/19 05:06:04;;;;;;;4.00;2.70;;;17.80;99.90;;;;;;5046663;28;20188;-60
2023/07/19 05:08:32;;;;;;;2.63;2.27;;;17.70;99.90;;;;;;5060366;28;20216;-60
2023/07/19 05:11:01;;;;;;;6.20;2.90;;;17.70;99.90;;;;;;5050797;28;20200;-60
2023/07/19 05:13:30;;;;;;;3.47;2.50;;;17.80;99.90;;;;;;5051629;28;20627;-60
2023/07/19 05:16:00;;;;;;;6.03;2.67;;;17.80;99.90;;;;;;5049084;28;20204;-60
2023/07/19 05:18:28;;;;;;;4.63;2.80;;;17.80;99.90;;;;;;5044038;28;20193;-61
2023/07/19 05:20:57;;;;;;;5.87;2.50;;;17.90;99.90;;;;;;5044628;28;20208;-60
2023/07/19 05:23:26;;;;;;;3.97;2.57;;;18.00;99.90;;;;;;5044397;28;20194;-61
2023/07/19 05:25:55;;;;;;;3.60;2.80;;;18.10;99.90;;;;;;5045649;28;20250;-60
2023/07/19 05:28:23;;;;;;;7.73;2.60;;;18.10;99.90;;;;;;5053866;28;20542;-60
2023/07/19 05:30:52;;;;;;;2.90;2.40;;;18.10;99.90;;;;;;5047336;28;20208;-60
2023/07/19 05:33:21;;;;;;;4.87;2.30;;;18.30;99.90;;;;;;5058172;28;20206;-60
2023/07/19 05:35:49;;;;;;;3.47;2.40;;;18.30;99.90;;;;;;5051331;28;20222;-60
2023/07/19 05:38:17;;;;;;;4.63;2.40;;;18.40;99.90;;;;;;5048342;28;20188;-60
2023/07/19 05:40:47;;;;;;;4.93;2.10;;;18.40;99.90;;;;;;5050142;28;20283;-60
2023/07/19 05:43:16;;;;;;;5.90;2.57;;;18.50;99.90;;;;;;5058354;28;20283;-60
2023/07/19 05:45:45;;;;;;;3.53;2.23;;;18.50;99.90;;;;;;5046454;28;20247;-60
2023/07/19 05:48:13;;;;;;;5.50;2.20;;;18.50;99.90;;;;;;5050589;28;20229;-61
2023/07/19 05:50:42;;;;;;;2.33;2.10;;;18.50;99.90;;;;;;5036180;28;20209;-60
2023/07/19 05:53:10;;;;;;;2.67;2.27;;;18.40;99.90;;;;;;5049043;28;20188;-60
2023/07/19 05:55:39;;;;;;;3.33;2.40;;;18.40;99.90;;;;;;5053985;28;20231;-61
2023/07/19 05:58:09;;;;;;;5.53;2.50;;;18.30;99.90;;;;;;5050055;28;20216;-60
2023/07/19 06:00:40;;;;;;;3.63;2.30;;;18.30;99.90;;;;;;5046028;28;20203;-60
2023/07/19 06:03:08;;;;;;;4.40;2.30;;;18.40;99.90;;;;;;5046876;28;20196;-60
2023/07/19 06:05:38;;;;;;;6.63;2.23;;;18.40;99.90;;;;;;5044570;28;20693;-60
2023/07/19 06:08:06;;;;;;;4.10;2.60;;;18.40;99.90;;;;;;5039863;28;20216;-60
2023/07/19 06:10:52;;;;;;;5.77;2.00;;;18.40;99.90;;;;;;5044120;28;20197;-60
2023/07/19 06:13:22;;;;;;;7.50;2.37;;;18.40;99.90;;;;;;5044781;28;20235;-60
2023/07/19 06:15:50;;;;;;;4.00;2.30;;;18.40;99.90;;;;;;5039059;28;20197;-60
2023/07/19 06:18:19;;;;;;;7.07;2.30;;;18.40;99.90;;;;;;5049376;28;20208;-60
2023/07/19 06:20:47;;;;;;;2.97;2.00;;;18.40;99.90;;;;;;5047605;28;20255;-60
2023/07/19 06:23:16;;;;;;;3.63;2.00;;;18.40;99.90;;;;;;5044614;28;20192;-61
2023/07/19 06:25:47;;;;;;;8.27;2.33;;;18.40;99.90;;;;;;5047717;28;20193;-60
2023/07/19 06:28:15;;;;;;;5.27;1.93;;;18.40;99.90;;;;;;5043240;28;20199;-60
2023/07/19 06:30:45;;;;;;;3.20;2.10;;;18.50;99.90;;;;;;5042493;28;20235;-60
2023/07/19 06:33:14;;;;;;;5.87;2.00;;;18.50;99.90;;;;;;5047350;28;20200;-60
2023/07/19 06:35:42;;;;;;;5.87;2.13;;;18.50;99.90;;;;;;5034219;28;20193;-60
2023/07/19 06:38:11;;;;;;;3.97;1.97;;;18.60;99.90;;;;;;5048260;28;20196;-60
2023/07/19 06:40:39;;;;;;;4.93;2.33;;;18.70;99.90;;;;;;5046630;28;20192;-60
2023/07/19 06:43:09;;;;;;;6.37;2.27;;;18.70;99.90;;;;;;5046497;28;21117;-60
2023/07/19 06:45:37;;;;;;;5.23;2.17;;;18.80;99.90;;;;;;5047293;28;20251;-60
2023/07/19 06:48:08;;;;;;;2.03;1.80;;;18.90;99.90;;;;;;5047947;28;20238;-60
2023/07/19 06:50:36;;;;;;;3.17;1.80;;;19.00;99.90;;;;;;5053029;28;20213;-60
2023/07/19 06:53:04;;;;;;;6.83;2.27;;;19.00;99.90;;;;;;5042943;28;20875;-60
2023/07/19 06:55:32;;;;;;;4.43;2.20;;;19.20;99.90;;;;;;5053982;28;20574;-60
2023/07/19 06:58:01;;;;;;;6.20;2.00;;;19.30;99.90;;;;;;5048063;28;20548;-60
2023/07/19 07:00:30;;;;;;;4.13;1.90;;;19.40;99.90;;;;;;5047641;28;20571;-60
2023/07/19 07:02:58;;;;;;;3.97;2.27;;;19.50;99.90;;;;;;5044251;28;20196;-60
2023/07/19 07:05:28;;;;;;;3.87;1.90;;;19.40;99.90;;;;;;5044831;28;20247;-60
2023/07/19 07:07:56;;;;;;;5.27;2.23;;;19.40;99.90;;;;;;5050435;28;20690;-60
2023/07/19 07:10:24;;;;;;;5.97;2.10;;;19.50;99.90;;;;;;5044238;28;20295;-60
2023/07/19 07:12:53;;;;;;;4.87;1.83;;;19.60;99.90;;;;;;5046761;28;20185;-60
2023/07/19 07:15:21;;;;;;;4.90;2.20;;;19.70;99.90;;;;;;5043423;28;20196;-60
2023/07/19 07:17:50;;;;;;;4.77;2.00;;;20.00;99.90;;;;;;5046239;28;20878;-60
2023/07/19 07:20:18;;;;;;;5.17;2.10;;;20.50;99.90;;;;;;5049323;28;20189;-60
2023/07/19 07:22:48;;;;;;;6.10;2.50;;;21.00;99.90;;;;;;5048092;28;20299;-60
2023/07/19 07:25:16;;;;;;;6.87;2.17;;;21.40;99.90;;;;;;5048037;28;20190;-60
2023/07/19 07:27:44;;;;;;;10.10;2.33;;;21.60;99.90;;;;;;5046657;28;20281;-60
2023/07/19 07:30:13;;;;;;;4.17;1.90;;;21.50;99.90;;;;;;5049462;28;20214;-60
2023/07/19 07:32:42;;;;;;;6.77;2.00;;;21.50;99.90;;;;;;5047136;28;20267;-60
2023/07/19 07:35:10;;;;;;;8.30;2.10;;;21.70;99.90;;;;;;5051273;28;20194;-60
2023/07/19 07:37:39;;;;;;;8.77;2.10;;;21.90;99.90;;;;;;5048895;28;20187;-60
2023/07/19 07:40:10;;;;;;;4.07;2.17;;;21.80;99.90;;;;;;5052711;28;20245;-60
2023/07/19 07:42:39;;;;;;;3.33;1.87;;;21.80;99.90;;;;;;5047622;28;20204;-60
2023/07/19 07:45:09;;;;;;;6.17;2.30;;;22.10;99.90;;;;;;5050197;28;20212;-60
2023/07/19 07:47:37;;;;;;;5.20;2.03;;;22.50;99.90;;;;;;5054690;28;20261;-60
2023/07/19 07:50:08;;;;;;;3.83;2.07;;;22.80;99.90;;;;;;5053395;28;20212;-60
2023/07/19 07:52:39;;;;;;;3.60;1.77;;;23.20;99.90;;;;;;5046606;28;20201;-60
2023/07/19 07:55:09;;;;;;;4.13;1.90;;;23.70;99.90;;;;;;5051492;28;20198;-60
2023/07/19 07:57:38;;;;;;;7.40;2.20;;;24.00;99.90;;;;;;5048395;28;20232;-60
2023/07/19 08:00:10;;;;;;;5.23;2.10;;;24.00;99.90;;;;;;5048223;28;20639;-60
2023/07/19 08:02:39;;;;;;;5.93;2.33;;;23.80;99.90;;;;;;5050672;28;20285;-60
2023/07/19 08:05:09;;;;;;;5.80;1.90;;;23.60;99.90;;;;;;5052747;28;20194;-60
2023/07/19 08:07:37;;;;;;;6.88;2.30;;;24.00;99.90;;;;;;5049877;28;20195;-60
2023/07/19 08:10:06;;;;;;;6.63;2.00;;;24.50;99.90;;;;;;5044688;28;20216;-61
2023/07/19 08:12:36;;;;;;;4.18;2.15;;;25.30;99.90;;;;;;5045326;28;20204;-60
2023/07/19 08:15:06;;;;;;;5.40;1.90;;;25.20;99.90;;;;;;5053743;28;20677;-60
2023/07/19 08:17:34;;;;;;;2.63;2.05;;;24.90;99.90;;;;;;5049871;28;20205;-60
2023/07/19 08:20:05;;;;;;;3.97;2.20;;;25.30;99.90;;;;;;5049636;28;20193;-60
2023/07/19 08:22:35;;;;;;;4.85;1.73;;;25.60;99.90;;;;;;5049559;28;20199;-60
2023/07/19 08:25:03;;;;;;;3.78;1.75;;;26.00;99.90;;;;;;5046178;28;20280;-60
2023/07/19 08:27:57;;;;;;;3.60;1.70;;;26.50;99.90;;;;;;5053829;28;20198;-60
2023/07/19 08:30:27;;;;;;;4.45;1.45;;;26.70;99.90;;;;;;5055972;28;20616;-60
2023/07/19 08:32:58;;;;;;;6.47;1.50;;;26.80;99.90;;;;;;5048906;28;20193;-60
2023/07/19 08:35:27;;;;;;;3.47;1.60;;;26.70;99.90;;;;;;5053690;28;20205;-60
2023/07/19 08:37:55;;;;;;;3.25;1.20;;;27.00;99.90;;;;;;5051476;28;20245;-61
2023/07/19 08:40:24;;;;;;;4.50;1.63;;;26.90;99.90;;;;;;5049656;28;20674;-60
2023/07/19 08:42:54;;;;;;;3.53;1.50;;;27.20;99.90;;;;;;5051921;28;20191;-60
2023/07/19 08:45:24;;;;;;;2.80;1.40;;;27.40;99.90;;;;;;5036160;28;20201;-60
2023/07/19 08:47:53;;;;;;;4.40;1.55;;;27.20;99.90;;;;;;5042703;28;20701;-60
2023/07/19 08:50:22;;;;;;;2.45;1.42;;;26.60;99.90;;;;;;5042829;28;20286;-60
2023/07/19 08:52:51;;;;;;;1.30;1.20;;;25.60;99.90;;;;;;5052709;28;20196;-59
2023/07/19 08:55:19;;;;;;;3.33;1.67;;;25.30;99.90;;;;;;5064689;28;20221;-60
2023/07/19 08:57:48;;;;;;;2.88;1.55;;;25.00;99.90;;;;;;5058596;28;20286;-60
2023/07/19 09:00:19;;;;;;;1.57;1.50;;;24.60;99.90;;;;;;5046116;28;20204;-59
2023/07/19 09:02:47;;;;;;;1.53;1.40;;;23.80;99.90;;;;;;5042080;28;20221;-60
2023/07/19 09:05:16;;;;;;;2.70;1.70;;;23.40;99.90;;;;;;5056645;28;20195;-60
2023/07/19 09:07:48;;;;;;;5.17;1.80;;;23.10;99.90;;;;;;5043704;28;20190;-60
2023/07/19 09:10:18;;;;;;;3.83;1.70;;;23.00;99.90;;;;;;5050307;28;20231;-60
2023/07/19 09:12:47;;;;;;;2.07;1.53;;;23.50;99.90;;;;;;5047774;28;20204;-60
2023/07/19 09:15:15;;;;;;;2.63;1.50;;;24.10;99.90;;;;;;5042493;28;20189;-60
2023/07/19 09:17:48;;;;;;;2.70;1.80;;;25.30;99.90;;;;;;5043001;28;20198;-60
2023/07/19 09:20:19;;;;;;;4.47;1.70;;;25.50;99.90;;;;;;5045565;28;20220;-61
2023/07/19 09:22:48;;;;;;;2.23;2.00;;;25.10;99.90;;;;;;5041686;28;20333;-61
2023/07/19 09:25:16;;;;;;;6.73;2.20;;;24.10;99.90;;;;;;5042870;28;20197;-60
2023/07/19 09:27:44;;;;;;;2.33;2.23;;;22.80;99.90;;;;;;5043440;28;20230;-60
2023/07/19 09:30:14;;;;;;;2.20;2.00;;;22.10;99.90;;;;;;5043658;28;20562;-60
2023/07/19 09:32:42;;;;;;;2.30;2.10;;;21.60;99.90;;;;;;5039525;28;20555;-61
2023/07/19 09:35:12;;;;;;;2.50;2.30;;;21.20;99.90;;;;;;5042226;28;20877;-60
2023/07/19 09:37:41;;;;;;;6.50;2.43;;;21.20;99.90;;;;;;5039857;28;20207;-60
2023/07/19 09:40:11;;;;;;;2.23;2.03;;;21.20;99.90;;;;;;5043302;28;20259;-60
2023/07/19 09:42:41;;;;;;;5.40;2.50;;;21.40;99.90;;;;;;5046974;28;20288;-60
2023/07/19 09:45:12;;;;;;;2.63;2.50;;;21.50;99.90;;;;;;5045123;28;20186;-60
2023/07/19 09:47:42;;;;;;;3.03;2.30;;;22.10;99.90;;;;;;5042765;28;20585;-60
2023/07/19 09:50:13;;;;;;;2.63;2.17;;;23.30;99.90;;;;;;5042510;28;22118;-60
2023/07/19 09:52:43;;;;;;;1.63;1.55;;;24.80;99.90;;;;;;5046798;28;20279;-61
2023/07/19 09:55:12;;;;;;;1.50;1.40;;;25.90;99.90;;;;;;5038673;28;20203;-61
2023/07/19 09:57:47;;;;;;;1.50;1.40;;;26.80;99.90;;;;;;5045874;28;20193;-60
2023/07/19 10:00:16;;;;;;;1.10;1.10;;;27.20;99.90;;;;;;5044174;28;20550;-61
2023/07/19 10:02:45;;;;;;;1.27;1.10;;;26.40;99.90;;;;;;5043067;28;20790;-60
2023/07/19 10:05:15;;;;;;;1.25;1.15;;;25.60;99.90;;;;;;5036021;28;20203;-60
2023/07/19 10:07:50;;;;;;;1.27;1.27;;;24.80;99.90;;;;;;5047813;28;20197;-60
2023/07/19 10:10:20;;;;;;;1.75;1.30;;;24.70;99.90;;;;;;5043477;28;20185;-60
2023/07/19 10:12:50;;;;;;;1.05;1.05;;;25.20;99.90;;;;;;5048066;28;20720;-60
2023/07/19 10:15:20;;;;;;;1.25;1.15;;;25.80;99.90;;;;;;5045508;28;20215;-60
2023/07/19 10:17:59;;;;;;;1.35;1.10;;;25.60;99.90;;;;;;5043711;28;20223;-60
2023/07/19 10:20:32;;;;;;;1.47;1.10;;;25.00;99.90;;;;;;5047458;28;20551;-59
2023/07/19 10:23:03;;;;;;;1.60;1.50;;;24.30;99.90;;;;;;5050576;28;20226;-61
2023/07/19 10:25:35;;;;;;;1.90;1.80;;;23.80;99.90;;;;;;5043090;28;21007;-61
2023/07/19 10:28:08;;;;;;;6.20;1.50;;;24.10;99.90;;;;;;5045835;28;20192;-60
2023/07/19 10:30:53;;;;;;;2.65;1.73;;;25.30;99.90;;;;;;5042252;28;20293;-59
2023/07/19 10:33:24;;;;;;;2.58;1.83;;;25.80;99.90;;;;;;5038423;28;20192;-60
2023/07/19 10:35:55;;;;;;;2.05;1.50;;;25.70;99.90;;;;;;5040957;28;20205;-61
2023/07/19 10:38:25;;;;;;;1.67;1.60;;;26.00;99.90;;;;;;5046769;28;20197;-61
2023/07/19 10:40:57;;;;;;;1.40;1.40;;;26.50;99.90;;;;;;5038853;28;20547;-60
2023/07/19 10:43:30;;;;;;;2.10;1.85;;;26.70;99.90;;;;;;5038205;28;20187;-60
2023/07/19 10:46:18;;;;;;;1.95;1.80;;;27.50;99.90;;;;;;5035563;28;20202;-60
2023/07/19 10:48:49;;;;;;;2.38;2.10;;;27.90;99.90;;;;;;5042360;28;20276;-60
2023/07/19 10:51:21;;;;;;;2.25;1.90;;;27.70;99.90;;;;;;5044167;28;20202;-60
2023/07/19 10:53:56;;;;;;;1.63;1.50;;;27.60;99.90;;;;;;5043962;28;20647;-60
2023/07/19 10:56:26;;;;;;;1.83;1.42;;;27.20;99.90;;;;;;5043577;28;20194;-60
2023/07/19 10:58:58;;;;;;;1.58;1.48;;;26.20;99.90;;;;;;5049958;28;20637;-64
2023/07/19 11:01:28;;;;;;;3.13;1.40;;;25.20;99.90;;;;;;5044645;28;20197;-66
2023/07/19 11:04:03;;;;;;;2.03;1.50;;;24.50;99.90;;;;;;5038714;28;20317;-63
2023/07/19 11:06:36;;;;;;;1.43;1.33;;;24.10;99.90;;;;;;5048471;28;20181;-63
2023/07/19 11:09:06;;;;;;;2.03;1.40;;;23.80;99.90;;;;;;5038292;28;20655;-63
2023/07/19 11:11:37;;;;;;;1.77;1.67;;;23.60;99.90;;;;;;5036365;28;20201;-62
2023/07/19 11:14:06;;;;;;;2.03;1.27;;;23.60;99.90;;;;;;5049618;28;20181;-62
2023/07/19 11:16:35;;;;;;;1.50;1.40;;;23.60;99.90;;;;;;5050457;28;20551;-63
2023/07/19 11:19:04;;;;;;;1.50;1.40;;;23.50;99.90;;;;;;5048815;28;20224;-62
2023/07/19 11:21:34;;;;;;;2.73;1.50;;;23.40;99.90;;;;;;5046959;28;20189;-63
2023/07/19 11:24:02;;;;;;;1.90;1.50;;;23.30;99.90;;;;;;5044566;28;20213;-63
2023/07/19 11:26:31;;;;;;;2.67;1.70;;;23.30;99.90;;;;;;5048445;28;20208;-63
2023/07/19 11:29:00;;;;;;;2.20;1.63;;;23.30;99.90;;;;;;5046970;28;20201;-63
2023/07/19 11:31:32;;;;;;;3.57;1.77;;;23.30;99.90;;;;;;5049513;28;20236;-63
2023/07/19 11:34:04;;;;;;;2.60;1.80;;;23.40;99.90;;;;;;5041586;28;20275;-63
2023/07/19 11:36:34;;;;;;;2.00;1.70;;;23.60;99.90;;;;;;5045829;28;20200;-63
2023/07/19 11:39:03;;;;;;;1.60;1.50;;;24.00;99.90;;;;;;5037681;28;20208;-62
2023/07/19 11:41:33;;;;;;;2.37;1.70;;;24.10;99.90;;;;;;5044224;28;20522;-62
2023/07/19 11:44:02;;;;;;;1.80;1.70;;;24.20;99.90;;;;;;5048583;28;20228;-62
2023/07/19 11:46:31;;;;;;;2.90;1.57;;;24.20;99.90;;;;;;5046145;28;20209;-61
2023/07/19 11:48:59;;;;;;;3.20;1.50;;;24.20;99.90;;;;;;5039594;28;20236;-60
2023/07/19 11:51:27;;;;;;;1.90;1.63;;;24.10;99.90;;;;;;5044795;28;20224;-64
2023/07/19 11:53:58;;;;;;;3.87;1.63;;;24.00;99.90;;;;;;5048500;28;20212;-66
2023/07/19 11:56:26;;;;;;;1.90;1.60;;;23.60;99.90;;;;;;5044890;28;20243;-60
2023/07/19 11:58:57;;;;;;;5.57;1.70;;;23.40;99.90;;;;;;5043470;28;20806;-58
2023/07/19 12:01:26;;;;;;;2.30;1.90;;;23.30;99.90;;;;;;5039499;28;20228;-58
2023/07/19 12:03:59;;;;;;;3.63;1.77;;;23.10;99.90;;;;;;5047701;28;20205;-58
2023/07/19 12:06:30;;;;;;;4.80;2.17;;;23.00;99.90;;;;;;5046269;28;20520;-59
2023/07/19 12:09:01;;;;;;;3.03;2.23;;;23.10;99.90;;;;;;5045761;28;20202;-59
2023/07/19 12:11:30;;;;;;;4.83;2.00;;;23.30;99.90;;;;;;5043194;28;20242;-58
2023/07/19 12:14:01;;;;;;;5.33;2.33;;;23.60;99.90;;;;;;5041895;28;20295;-59
2023/07/19 12:16:30;;;;;;;2.30;2.10;;;23.80;99.90;;;;;;5040646;28;20198;-59
2023/07/19 12:18:59;;;;;;;2.70;2.00;;;24.00;99.90;;;;;;5043208;28;20720;-59
2023/07/19 12:21:27;;;;;;;2.63;2.07;;;24.00;99.90;;;;;;5039634;28;20272;-58
2023/07/19 12:23:56;;;;;;;2.50;2.40;;;24.00;99.90;;;;;;5045003;28;20234;-59
2023/07/19 12:26:28;;;;;;;4.90;2.00;;;24.00;99.90;;;;;;5037468;28;20223;-59
2023/07/19 12:28:59;;;;;;;4.53;2.60;;;24.10;99.90;;;;;;5039054;28;20226;-59
2023/07/19 12:31:28;;;;;;;3.17;2.10;;;24.30;99.90;;;;;;5037553;28;20210;-59
2023/07/19 12:33:57;;;;;;;1.83;1.70;;;24.50;99.90;;;;;;5043966;28;20203;-59
2023/07/19 12:36:25;;;;;;;2.13;1.80;;;24.50;99.90;;;;;;5044318;28;20229;-59
2023/07/19 12:38:56;;;;;;;4.37;2.30;;;24.20;99.90;;;;;;5045864;28;20554;-59
2023/07/19 12:41:24;;;;;;;4.43;2.30;;;24.10;99.90;;;;;;5041715;28;20553;-58
2023/07/19 12:43:54;;;;;;;3.57;1.77;;;24.10;99.90;;;;;;5046370;28;20201;-58
2023/07/19 12:46:22;;;;;;;2.60;1.90;;;24.10;99.90;;;;;;5036485;28;20200;-59
2023/07/19 12:48:51;;;;;;;2.10;1.90;;;24.20;99.90;;;;;;5039917;28;20225;-59
2023/07/19 12:51:23;;;;;;;3.03;1.83;;;24.20;99.90;;;;;;5032379;28;20225;-59
2023/07/19 12:53:51;;;;;;;1.37;1.37;;;24.10;99.90;;;;;;5040879;28;20744;-59
2023/07/19 12:56:20;;;;;;;7.07;2.20;;;24.20;99.90;;;;;;5044367;28;20272;-59
2023/07/19 12:58:49;;;;;;;2.83;1.77;;;24.30;99.90;;;;;;5048133;28;20189;-58